sensor_id;sensor_type;location;lat;lon;timestamp;temperature;humidity
14031;DHT22;7090;49.436;8.490;2023-03-24T00:00:40;13.90;1.00
14031;DHT22;7090;49.436;8.490;2023-03-24T00:03:06;14.00;1.00
14031;DHT22;7090;49.436;8.490;2023-03-24T00:05:33;14.00;1.00
14031;DHT22;7090;49.436;8.490;2023-03-24T00:07:58;13.90;1.00
14031;DHT22;7090;49.436;8.490;2023-03-24T00:10:26;14.00;1.00
14031;DHT22;7090;49.436;8.490;2023-03-24T00:12:55;14.00;1.00
14031;DHT22;7090;49.436;8.490;2023-03-24T00:15:23;14.00;1.00
14031;DHT22;7090;49.436;8.490;2023-03-24T00:17:49;14.00;1.00
14031;DHT22;7090;49.436;8.490;2023-03-24T00:20:16;14.00;1.00
14031;DHT22;7090;49.436;8.490;2023-03-24T00:22:44;14.00;1.00
14031;DHT22;7090;49.436;8.490;2023-03-24T00:25:15;14.00;1.00
14031;DHT22;7090;49.436;8.490;2023-03-24T00:27:41;14.00;1.00
14031;DHT22;7090;49.436;8.490;2023-03-24T00:30:10;13.90;1.00
14031;DHT22;7090;49.436;8.490;2023-03-24T00:32:36;14.00;1.00
14031;DHT22;7090;49.436;8.490;2023-03-24T00:35:04;14.00;99.90
14031;DHT22;7090;49.436;8.490;2023-03-24T00:37:30;14.00;99.90
14031;DHT22;7090;49.436;8.490;2023-03-24T00:39:56;14.00;99.90
14031;DHT22;7090;49.436;8.490;2023-03-24T00:42:22;14.00;99.90
14031;DHT22;7090;49.436;8.490;2023-03-24T00:44:49;14.00;99.90
14031;DHT22;7090;49.436;8.490;2023-03-24T00:47:15;13.90;99.90
14031;DHT22;7090;49.436;8.490;2023-03-24T00:49:42;13.90;99.90
14031;DHT22;7090;49.436;8.490;2023-03-24T00:52:17;13.90;1.00
14031;DHT22;7090;49.436;8.490;2023-03-24T00:54:46;13.80;1.00
14031;DHT22;7090;49.436;8.490;2023-03-24T00:57:13;13.80;1.00
14031;DHT22;7090;49.436;8.490;2023-03-24T00:59:48;13.70;1.00
14031;DHT22;7090;49.436;8.490;2023-03-24T01:02:19;13.70;1.00
14031;DHT22;7090;49.436;8.490;2023-03-24T01:04:47;13.60;1.00
14031;DHT22;7090;49.436;8.490;2023-03-24T01:07:19;13.60;1.00
14031;DHT22;7090;49.436;8.490;2023-03-24T01:09:46;13.70;1.00
14031;DHT22;7090;49.436;8.490;2023-03-24T01:12:31;13.70;1.00
14031;DHT22;7090;49.436;8.490;2023-03-24T01:15:02;13.80;1.00
14031;DHT22;7090;49.436;8.490;2023-03-24T01:17:31;13.80;1.00
14031;DHT22;7090;49.436;8.490;2023-03-24T01:19:57;13.80;1.00
14031;DHT22;7090;49.436;8.490;2023-03-24T01:22:28;13.80;1.00
14031;DHT22;7090;49.436;8.490;2023-03-24T01:24:54;13.80;1.00
14031;DHT22;7090;49.436;8.490;2023-03-24T01:27:20;13.80;1.00
14031;DHT22;7090;49.436;8.490;2023-03-24T01:29:45;13.80;1.00
14031;DHT22;7090;49.436;8.490;2023-03-24T01:32:11;13.80;1.00
14031;DHT22;7090;49.436;8.490;2023-03-24T01:34:37;13.80;1.00
14031;DHT22;7090;49.436;8.490;2023-03-24T01:37:03;13.80;1.00
14031;DHT22;7090;49.436;8.490;2023-03-24T01:39:28;13.80;1.00
14031;DHT22;7090;49.436;8.490;2023-03-24T01:41:54;13.90;1.00
14031;DHT22;7090;49.436;8.490;2023-03-24T01:44:35;13.90;1.00
14031;DHT22;7090;49.436;8.490;2023-03-24T01:47:04;13.90;1.00
14031;DHT22;7090;49.436;8.490;2023-03-24T01:49:36;13.90;1.00
14031;DHT22;7090;49.436;8.490;2023-03-24T01:52:08;13.90;1.00
14031;DHT22;7090;49.436;8.490;2023-03-24T01:54:39;13.90;1.00
14031;DHT22;7090;49.436;8.490;2023-03-24T01:57:19;13.90;1.00
14031;DHT22;7090;49.436;8.490;2023-03-24T01:59:50;13.90;1.00
14031;DHT22;7090;49.436;8.490;2023-03-24T02:02:17;14.00;1.00
14031;DHT22;7090;49.436;8.490;2023-03-24T02:04:59;13.90;1.00
14031;DHT22;7090;49.436;8.490;2023-03-24T02:07:50;14.00;1.00
14031;DHT22;7090;49.436;8.490;2023-03-24T02:10:18;13.90;1.00
14031;DHT22;7090;49.436;8.490;2023-03-24T02:12:45;13.90;1.00
14031;DHT22;7090;49.436;8.490;2023-03-24T02:15:13;14.00;1.00
14031;DHT22;7090;49.436;8.490;2023-03-24T02:47:55;14.40;99.90
14031;DHT22;7090;49.436;8.490;2023-03-24T02:53:15;14.40;99.90
14031;DHT22;7090;49.436;8.490;2023-03-24T02:55:55;14.50;99.90
14031;DHT22;7090;49.436;8.490;2023-03-24T02:58:36;14.50;99.90
14031;DHT22;7090;49.436;8.490;2023-03-24T03:01:30;14.50;99.90
14031;DHT22;7090;49.436;8.490;2023-03-24T03:04:05;14.50;99.90
14031;DHT22;7090;49.436;8.490;2023-03-24T03:06:37;14.50;99.90
14031;DHT22;7090;49.436;8.490;2023-03-24T03:09:09;14.40;99.90
14031;DHT22;7090;49.436;8.490;2023-03-24T03:11:38;14.40;99.90
14031;DHT22;7090;49.436;8.490;2023-03-24T03:14:09;14.50;99.90
14031;DHT22;7090;49.436;8.490;2023-03-24T03:16:45;14.50;97.10
14031;DHT22;7090;49.436;8.490;2023-03-24T03:19:16;14.50;83.30
14031;DHT22;7090;49.436;8.490;2023-03-24T03:21:45;14.50;76.40
14031;DHT22;7090;49.436;8.490;2023-03-24T03:24:18;14.50;95.30
14031;DHT22;7090;49.436;8.490;2023-03-24T03:26:55;14.60;85.00
14031;DHT22;7090;49.436;8.490;2023-03-24T03:29:27;14.50;74.70
14031;DHT22;7090;49.436;8.490;2023-03-24T03:31:57;14.60;59.10
14031;DHT22;7090;49.436;8.490;2023-03-24T03:36:56;14.60;66.10
14031;DHT22;7090;49.436;8.490;2023-03-24T03:39:32;14.50;79.50
14031;DHT22;7090;49.436;8.490;2023-03-24T03:41:58;14.50;57.90
14031;DHT22;7090;49.436;8.490;2023-03-24T03:44:24;14.50;80.00
14031;DHT22;7090;49.436;8.490;2023-03-24T03:46:51;14.50;55.80
14031;DHT22;7090;49.436;8.490;2023-03-24T03:49:17;14.50;53.90
14031;DHT22;7090;49.436;8.490;2023-03-24T03:51:42;14.60;28.10
14031;DHT22;7090;49.436;8.490;2023-03-24T03:54:10;14.70;15.60
14031;DHT22;7090;49.436;8.490;2023-03-24T03:56:37;14.70;4.80
14031;DHT22;7090;49.436;8.490;2023-03-24T03:59:04;14.70;38.60
14031;DHT22;7090;49.436;8.490;2023-03-24T04:01:32;14.70;84.40
14031;DHT22;7090;49.436;8.490;2023-03-24T04:10:06;15.00;1.00
14031;DHT22;7090;49.436;8.490;2023-03-24T04:15:43;15.00;1.00
14031;DHT22;7090;49.436;8.490;2023-03-24T04:18:29;15.00;5.10
14031;DHT22;7090;49.436;8.490;2023-03-24T04:29:48;15.00;99.90
14031;DHT22;7090;49.436;8.490;2023-03-24T04:32:40;15.00;99.90
14031;DHT22;7090;49.436;8.490;2023-03-24T04:35:16;15.00;99.90
14031;DHT22;7090;49.436;8.490;2023-03-24T04:37:51;15.00;99.90
14031;DHT22;7090;49.436;8.490;2023-03-24T04:40:19;15.00;1.00
14031;DHT22;7090;49.436;8.490;2023-03-24T04:42:52;15.00;1.00
14031;DHT22;7090;49.436;8.490;2023-03-24T04:45:20;14.90;1.00
14031;DHT22;7090;49.436;8.490;2023-03-24T04:47:55;15.00;1.00
14031;DHT22;7090;49.436;8.490;2023-03-24T04:50:37;14.90;1.00
14031;DHT22;7090;49.436;8.490;2023-03-24T04:53:04;14.90;1.00
14031;DHT22;7090;49.436;8.490;2023-03-24T04:58:25;14.70;1.00
14031;DHT22;7090;49.436;8.490;2023-03-24T05:00:51;14.60;13.00
14031;DHT22;7090;49.436;8.490;2023-03-24T05:03:17;14.50;41.30
14031;DHT22;7090;49.436;8.490;2023-03-24T05:05:48;14.40;99.90
14031;DHT22;7090;49.436;8.490;2023-03-24T05:08:17;14.30;99.90
14031;DHT22;7090;49.436;8.490;2023-03-24T05:10:44;14.20;99.90
14031;DHT22;7090;49.436;8.490;2023-03-24T05:13:10;14.20;99.90
14031;DHT22;7090;49.436;8.490;2023-03-24T05:15:36;14.40;99.90
14031;DHT22;7090;49.436;8.490;2023-03-24T05:18:03;14.00;99.90
14031;DHT22;7090;49.436;8.490;2023-03-24T05:20:29;13.90;99.90
14031;DHT22;7090;49.436;8.490;2023-03-24T05:22:55;13.90;99.90
14031;DHT22;7090;49.436;8.490;2023-03-24T05:25:20;13.90;99.90
14031;DHT22;7090;49.436;8.490;2023-03-24T05:27:46;13.80;99.90
14031;DHT22;7090;49.436;8.490;2023-03-24T05:30:13;13.80;99.90
14031;DHT22;7090;49.436;8.490;2023-03-24T05:32:39;13.80;99.90
14031;DHT22;7090;49.436;8.490;2023-03-24T05:35:05;13.80;99.90
14031;DHT22;7090;49.436;8.490;2023-03-24T05:37:31;13.80;99.90
14031;DHT22;7090;49.436;8.490;2023-03-24T05:39:57;13.70;99.90
14031;DHT22;7090;49.436;8.490;2023-03-24T05:42:22;13.70;99.90
14031;DHT22;7090;49.436;8.490;2023-03-24T05:44:48;13.70;99.90
14031;DHT22;7090;49.436;8.490;2023-03-24T05:47:13;13.70;99.90
14031;DHT22;7090;49.436;8.490;2023-03-24T05:49:44;13.60;99.90
14031;DHT22;7090;49.436;8.490;2023-03-24T05:52:11;13.60;99.90
14031;DHT22;7090;49.436;8.490;2023-03-24T05:54:37;13.60;99.90
14031;DHT22;7090;49.436;8.490;2023-03-24T05:57:04;13.70;99.90
14031;DHT22;7090;49.436;8.490;2023-03-24T05:59:33;13.60;99.90
14031;DHT22;7090;49.436;8.490;2023-03-24T06:01:58;13.70;99.90
14031;DHT22;7090;49.436;8.490;2023-03-24T06:04:24;13.70;99.90
14031;DHT22;7090;49.436;8.490;2023-03-24T06:06:54;13.60;99.90
14031;DHT22;7090;49.436;8.490;2023-03-24T06:09:20;13.70;99.90
14031;DHT22;7090;49.436;8.490;2023-03-24T06:11:46;13.70;99.90
14031;DHT22;7090;49.436;8.490;2023-03-24T06:14:11;13.70;99.90
14031;DHT22;7090;49.436;8.490;2023-03-24T06:16:37;13.70;99.90
14031;DHT22;7090;49.436;8.490;2023-03-24T06:19:03;13.70;99.90
14031;DHT22;7090;49.436;8.490;2023-03-24T06:21:32;13.70;99.90
14031;DHT22;7090;49.436;8.490;2023-03-24T06:23:57;13.70;99.90
14031;DHT22;7090;49.436;8.490;2023-03-24T06:26:24;13.70;99.90
14031;DHT22;7090;49.436;8.490;2023-03-24T06:28:49;13.70;99.90
14031;DHT22;7090;49.436;8.490;2023-03-24T06:31:18;13.70;99.90
14031;DHT22;7090;49.436;8.490;2023-03-24T06:33:49;13.60;99.90
14031;DHT22;7090;49.436;8.490;2023-03-24T06:36:14;13.90;99.90
14031;DHT22;7090;49.436;8.490;2023-03-24T06:38:40;13.80;99.90
14031;DHT22;7090;49.436;8.490;2023-03-24T06:41:07;13.70;99.90
14031;DHT22;7090;49.436;8.490;2023-03-24T06:43:33;13.70;99.90
14031;DHT22;7090;49.436;8.490;2023-03-24T06:45:59;13.70;99.90
14031;DHT22;7090;49.436;8.490;2023-03-24T06:48:26;13.80;99.90
14031;DHT22;7090;49.436;8.490;2023-03-24T06:50:52;13.70;99.90
14031;DHT22;7090;49.436;8.490;2023-03-24T06:53:18;13.70;99.90
14031;DHT22;7090;49.436;8.490;2023-03-24T06:56:20;13.70;99.90
14031;DHT22;7090;49.436;8.490;2023-03-24T06:58:46;13.70;99.90
14031;DHT22;7090;49.436;8.490;2023-03-24T07:01:13;13.70;99.90
14031;DHT22;7090;49.436;8.490;2023-03-24T07:03:39;13.80;99.90
14031;DHT22;7090;49.436;8.490;2023-03-24T07:06:07;13.80;99.90
14031;DHT22;7090;49.436;8.490;2023-03-24T07:08:34;13.90;99.90
14031;DHT22;7090;49.436;8.490;2023-03-24T07:11:00;13.90;99.90
14031;DHT22;7090;49.436;8.490;2023-03-24T07:13:27;14.10;99.90
14031;DHT22;7090;49.436;8.490;2023-03-24T07:15:52;14.10;99.90
14031;DHT22;7090;49.436;8.490;2023-03-24T07:18:18;14.20;99.90
14031;DHT22;7090;49.436;8.490;2023-03-24T07:20:44;14.20;99.90
14031;DHT22;7090;49.436;8.490;2023-03-24T07:23:10;14.30;99.90
14031;DHT22;7090;49.436;8.490;2023-03-24T07:25:36;14.30;99.90
14031;DHT22;7090;49.436;8.490;2023-03-24T07:28:01;14.30;99.90
14031;DHT22;7090;49.436;8.490;2023-03-24T07:30:27;14.30;99.90
14031;DHT22;7090;49.436;8.490;2023-03-24T07:32:55;14.30;99.90
14031;DHT22;7090;49.436;8.490;2023-03-24T07:35:21;14.60;99.90
14031;DHT22;7090;49.436;8.490;2023-03-24T07:37:47;14.30;99.90
14031;DHT22;7090;49.436;8.490;2023-03-24T07:40:13;14.20;99.90
14031;DHT22;7090;49.436;8.490;2023-03-24T07:42:41;14.20;99.90
14031;DHT22;7090;49.436;8.490;2023-03-24T07:45:11;14.20;99.90
14031;DHT22;7090;49.436;8.490;2023-03-24T07:47:38;14.20;99.90
14031;DHT22;7090;49.436;8.490;2023-03-24T07:50:07;14.10;99.90
14031;DHT22;7090;49.436;8.490;2023-03-24T07:52:37;14.10;99.90
14031;DHT22;7090;49.436;8.490;2023-03-24T07:55:03;14.10;99.90
14031;DHT22;7090;49.436;8.490;2023-03-24T07:57:29;14.00;99.90
14031;DHT22;7090;49.436;8.490;2023-03-24T07:59:55;14.00;99.90
14031;DHT22;7090;49.436;8.490;2023-03-24T08:02:20;14.00;99.90
14031;DHT22;7090;49.436;8.490;2023-03-24T08:04:49;14.00;99.90
14031;DHT22;7090;49.436;8.490;2023-03-24T08:07:18;14.10;99.90
14031;DHT22;7090;49.436;8.490;2023-03-24T08:09:44;14.20;99.90
14031;DHT22;7090;49.436;8.490;2023-03-24T08:12:09;14.20;99.90
14031;DHT22;7090;49.436;8.490;2023-03-24T08:14:35;14.20;99.90
14031;DHT22;7090;49.436;8.490;2023-03-24T08:17:00;14.30;99.90
14031;DHT22;7090;49.436;8.490;2023-03-24T08:19:26;14.30;99.90
14031;DHT22;7090;49.436;8.490;2023-03-24T08:21:52;14.30;99.90
14031;DHT22;7090;49.436;8.490;2023-03-24T08:24:18;14.30;99.90
14031;DHT22;7090;49.436;8.490;2023-03-24T08:26:44;14.20;99.90
14031;DHT22;7090;49.436;8.490;2023-03-24T08:29:11;14.30;99.90
14031;DHT22;7090;49.436;8.490;2023-03-24T08:31:37;14.20;99.90
14031;DHT22;7090;49.436;8.490;2023-03-24T08:34:03;14.20;99.90
14031;DHT22;7090;49.436;8.490;2023-03-24T08:36:30;14.20;99.90
14031;DHT22;7090;49.436;8.490;2023-03-24T08:38:56;14.30;99.90
14031;DHT22;7090;49.436;8.490;2023-03-24T08:41:23;14.20;99.90
14031;DHT22;7090;49.436;8.490;2023-03-24T08:44:01;14.20;99.90
14031;DHT22;7090;49.436;8.490;2023-03-24T08:46:32;14.20;99.90
14031;DHT22;7090;49.436;8.490;2023-03-24T08:48:58;14.10;99.90
14031;DHT22;7090;49.436;8.490;2023-03-24T08:51:24;14.10;99.90
14031;DHT22;7090;49.436;8.490;2023-03-24T08:53:50;14.20;99.90
14031;DHT22;7090;49.436;8.490;2023-03-24T08:56:17;14.20;99.90
14031;DHT22;7090;49.436;8.490;2023-03-24T08:58:43;14.20;99.90
14031;DHT22;7090;49.436;8.490;2023-03-24T09:01:08;14.30;99.90
14031;DHT22;7090;49.436;8.490;2023-03-24T09:03:34;14.20;99.90
14031;DHT22;7090;49.436;8.490;2023-03-24T09:06:04;14.30;99.90
14031;DHT22;7090;49.436;8.490;2023-03-24T09:08:30;14.30;99.90
14031;DHT22;7090;49.436;8.490;2023-03-24T09:10:56;14.20;99.90
14031;DHT22;7090;49.436;8.490;2023-03-24T09:13:22;14.30;99.90
14031;DHT22;7090;49.436;8.490;2023-03-24T09:15:50;14.30;99.90
14031;DHT22;7090;49.436;8.490;2023-03-24T09:18:17;14.30;99.90
14031;DHT22;7090;49.436;8.490;2023-03-24T09:20:44;14.30;99.90
14031;DHT22;7090;49.436;8.490;2023-03-24T09:23:10;14.30;99.90
14031;DHT22;7090;49.436;8.490;2023-03-24T09:25:36;14.30;99.90
14031;DHT22;7090;49.436;8.490;2023-03-24T09:28:02;14.30;99.90
14031;DHT22;7090;49.436;8.490;2023-03-24T09:30:28;14.30;99.90
14031;DHT22;7090;49.436;8.490;2023-03-24T09:32:54;14.30;99.90
14031;DHT22;7090;49.436;8.490;2023-03-24T09:35:24;14.40;99.90
14031;DHT22;7090;49.436;8.490;2023-03-24T09:37:50;14.40;99.90
14031;DHT22;7090;49.436;8.490;2023-03-24T09:40:22;14.40;99.90
14031;DHT22;7090;49.436;8.490;2023-03-24T09:42:57;14.50;99.90
14031;DHT22;7090;49.436;8.490;2023-03-24T09:45:26;14.50;99.90
14031;DHT22;7090;49.436;8.490;2023-03-24T09:48:35;14.50;99.90
14031;DHT22;7090;49.436;8.490;2023-03-24T09:53:41;14.50;99.90
14031;DHT22;7090;49.436;8.490;2023-03-24T09:56:13;14.40;99.90
14031;DHT22;7090;49.436;8.490;2023-03-24T09:58:41;14.50;99.90
14031;DHT22;7090;49.436;8.490;2023-03-24T10:01:12;14.50;99.90
14031;DHT22;7090;49.436;8.490;2023-03-24T10:03:39;14.40;99.90
14031;DHT22;7090;49.436;8.490;2023-03-24T10:06:16;14.40;99.90
14031;DHT22;7090;49.436;8.490;2023-03-24T10:08:53;14.30;99.90
14031;DHT22;7090;49.436;8.490;2023-03-24T10:17:03;14.20;99.90
14031;DHT22;7090;49.436;8.490;2023-03-24T10:22:38;14.20;99.90
14031;DHT22;7090;49.436;8.490;2023-03-24T10:28:16;14.20;99.90
14031;DHT22;7090;49.436;8.490;2023-03-24T10:30:43;14.20;99.90
14031;DHT22;7090;49.436;8.490;2023-03-24T10:33:11;14.20;99.90
14031;DHT22;7090;49.436;8.490;2023-03-24T10:35:42;14.20;99.90
14031;DHT22;7090;49.436;8.490;2023-03-24T10:38:17;14.30;99.90
14031;DHT22;7090;49.436;8.490;2023-03-24T10:40:43;14.20;99.90
14031;DHT22;7090;49.436;8.490;2023-03-24T10:43:10;14.20;99.90
14031;DHT22;7090;49.436;8.490;2023-03-24T10:45:38;14.20;99.90
14031;DHT22;7090;49.436;8.490;2023-03-24T10:48:05;14.20;99.90
14031;DHT22;7090;49.436;8.490;2023-03-24T10:50:32;14.20;99.90
14031;DHT22;7090;49.436;8.490;2023-03-24T10:53:06;14.30;99.90
14031;DHT22;7090;49.436;8.490;2023-03-24T10:55:37;14.40;99.90
14031;DHT22;7090;49.436;8.490;2023-03-24T10:58:20;14.50;99.90
14031;DHT22;7090;49.436;8.490;2023-03-24T11:00:49;14.60;99.90
14031;DHT22;7090;49.436;8.490;2023-03-24T11:03:18;14.80;99.90
14031;DHT22;7090;49.436;8.490;2023-03-24T11:05:46;14.70;99.90
14031;DHT22;7090;49.436;8.490;2023-03-24T11:10:56;14.70;99.90
14031;DHT22;7090;49.436;8.490;2023-03-24T11:16:12;14.50;99.90
14031;DHT22;7090;49.436;8.490;2023-03-24T11:21:22;13.90;21.50
14031;DHT22;7090;49.436;8.490;2023-03-24T11:23:47;13.90;99.90
14031;DHT22;7090;49.436;8.490;2023-03-24T11:26:38;13.90;99.90
14031;DHT22;7090;49.436;8.490;2023-03-24T11:29:12;13.90;99.90
14031;DHT22;7090;49.436;8.490;2023-03-24T11:31:39;14.00;99.90
14031;DHT22;7090;49.436;8.490;2023-03-24T11:34:31;14.00;1.00
14031;DHT22;7090;49.436;8.490;2023-03-24T11:37:01;14.10;1.00
14031;DHT22;7090;49.436;8.490;2023-03-24T11:39:32;14.20;1.00
14031;DHT22;7090;49.436;8.490;2023-03-24T11:47:34;14.40;1.00
14031;DHT22;7090;49.436;8.490;2023-03-24T11:53:11;14.60;1.00
14031;DHT22;7090;49.436;8.490;2023-03-24T12:01:05;14.70;99.90
14031;DHT22;7090;49.436;8.490;2023-03-24T12:13:00;15.20;1.00
14031;DHT22;7090;49.436;8.490;2023-03-24T12:18:37;15.00;1.00
14031;DHT22;7090;49.436;8.490;2023-03-24T12:21:33;15.10;1.00
14031;DHT22;7090;49.436;8.490;2023-03-24T12:24:26;15.10;1.00
14031;DHT22;7090;49.436;8.490;2023-03-24T12:26:59;15.10;1.00
14031;DHT22;7090;49.436;8.490;2023-03-24T12:30:09;15.20;1.00
14031;DHT22;7090;49.436;8.490;2023-03-24T12:32:28;15.30;1.00
14031;DHT22;7090;49.436;8.490;2023-03-24T12:35:05;15.40;1.00
14031;DHT22;7090;49.436;8.490;2023-03-24T12:45:57;15.90;1.00
14031;DHT22;7090;49.436;8.490;2023-03-24T12:52:03;16.30;99.90
14031;DHT22;7090;49.436;8.490;2023-03-24T12:56:53;16.90;1.00
14031;DHT22;7090;49.436;8.490;2023-03-24T12:59:32;17.00;1.00
14031;DHT22;7090;49.436;8.490;2023-03-24T13:04:36;17.50;1.00
14031;DHT22;7090;49.436;8.490;2023-03-24T13:07:18;17.40;1.00
14031;DHT22;7090;49.436;8.490;2023-03-24T13:12:32;17.60;1.00
14031;DHT22;7090;49.436;8.490;2023-03-24T13:21:03;17.40;1.00
14031;DHT22;7090;49.436;8.490;2023-03-24T13:23:51;17.10;1.00
14031;DHT22;7090;49.436;8.490;2023-03-24T13:26:29;17.40;1.00
14031;DHT22;7090;49.436;8.490;2023-03-24T13:31:34;17.40;1.00
14031;DHT22;7090;49.436;8.490;2023-03-24T13:34:02;16.90;1.00
14031;DHT22;7090;49.436;8.490;2023-03-24T13:37:05;16.70;1.00
14031;DHT22;7090;49.436;8.490;2023-03-24T13:39:33;17.10;1.00
14031;DHT22;7090;49.436;8.490;2023-03-24T13:41:59;17.30;1.00
14031;DHT22;7090;49.436;8.490;2023-03-24T13:44:38;17.60;1.00
14031;DHT22;7090;49.436;8.490;2023-03-24T13:47:15;17.50;1.00
14031;DHT22;7090;49.436;8.490;2023-03-24T13:49:51;17.50;1.00
14031;DHT22;7090;49.436;8.490;2023-03-24T13:52:27;18.00;1.00
14031;DHT22;7090;49.436;8.490;2023-03-24T13:55:00;17.90;1.00
14031;DHT22;7090;49.436;8.490;2023-03-24T13:57:27;18.30;1.00
14031;DHT22;7090;49.436;8.490;2023-03-24T14:00:22;17.90;1.00
14031;DHT22;7090;49.436;8.490;2023-03-24T14:02:53;18.10;1.00
14031;DHT22;7090;49.436;8.490;2023-03-24T14:08:14;18.30;1.00
14031;DHT22;7090;49.436;8.490;2023-03-24T14:10:43;18.60;1.00
14031;DHT22;7090;49.436;8.490;2023-03-24T14:15:56;18.50;1.00
14031;DHT22;7090;49.436;8.490;2023-03-24T14:21:02;18.60;1.00
14031;DHT22;7090;49.436;8.490;2023-03-24T14:23:46;18.20;1.00
14031;DHT22;7090;49.436;8.490;2023-03-24T14:28:50;17.70;1.00
14031;DHT22;7090;49.436;8.490;2023-03-24T14:36:30;17.70;1.00
14031;DHT22;7090;49.436;8.490;2023-03-24T14:41:33;17.40;1.00
14031;DHT22;7090;49.436;8.490;2023-03-24T14:44:03;17.20;1.00
14031;DHT22;7090;49.436;8.490;2023-03-24T14:46:44;17.10;1.00
14031;DHT22;7090;49.436;8.490;2023-03-24T14:49:28;17.20;1.00
14031;DHT22;7090;49.436;8.490;2023-03-24T14:57:23;17.10;1.00
14031;DHT22;7090;49.436;8.490;2023-03-24T15:00:22;17.10;1.00
14031;DHT22;7090;49.436;8.490;2023-03-24T15:02:51;17.20;1.00
14031;DHT22;7090;49.436;8.490;2023-03-24T15:08:10;17.10;1.00
14031;DHT22;7090;49.436;8.490;2023-03-24T15:11:00;17.10;1.00
14031;DHT22;7090;49.436;8.490;2023-03-24T15:16:22;17.00;1.00
14031;DHT22;7090;49.436;8.490;2023-03-24T15:19:27;17.00;1.00
14031;DHT22;7090;49.436;8.490;2023-03-24T15:22:02;17.10;1.00
14031;DHT22;7090;49.436;8.490;2023-03-24T15:24:29;17.10;1.00
14031;DHT22;7090;49.436;8.490;2023-03-24T15:29:31;17.30;1.00
14031;DHT22;7090;49.436;8.490;2023-03-24T15:31:57;17.90;1.00
14031;DHT22;7090;49.436;8.490;2023-03-24T15:34:35;18.30;1.00
14031;DHT22;7090;49.436;8.490;2023-03-24T15:37:03;18.60;1.00
14031;DHT22;7090;49.436;8.490;2023-03-24T15:39:37;18.60;1.00
14031;DHT22;7090;49.436;8.490;2023-03-24T15:42:08;18.50;1.00
14031;DHT22;7090;49.436;8.490;2023-03-24T15:44:39;18.20;1.00
14031;DHT22;7090;49.436;8.490;2023-03-24T15:47:35;18.30;1.00
14031;DHT22;7090;49.436;8.490;2023-03-24T15:49:59;18.40;1.00
14031;DHT22;7090;49.436;8.490;2023-03-24T15:54:55;17.80;1.00
14031;DHT22;7090;49.436;8.490;2023-03-24T15:57:25;17.70;1.00
14031;DHT22;7090;49.436;8.490;2023-03-24T16:02:34;17.30;1.00
14031;DHT22;7090;49.436;8.490;2023-03-24T16:07:44;17.50;99.90
14031;DHT22;7090;49.436;8.490;2023-03-24T16:12:51;18.10;1.00
14031;DHT22;7090;49.436;8.490;2023-03-24T16:15:17;18.00;1.00
14031;DHT22;7090;49.436;8.490;2023-03-24T16:17:43;18.10;1.00
14031;DHT22;7090;49.436;8.490;2023-03-24T16:20:20;17.80;1.00
14031;DHT22;7090;49.436;8.490;2023-03-24T16:22:46;17.80;1.00
14031;DHT22;7090;49.436;8.490;2023-03-24T16:25:12;17.90;1.00
14031;DHT22;7090;49.436;8.490;2023-03-24T16:27:38;17.70;1.00
14031;DHT22;7090;49.436;8.490;2023-03-24T16:30:32;17.70;1.00
14031;DHT22;7090;49.436;8.490;2023-03-24T16:33:02;17.50;1.00
14031;DHT22;7090;49.436;8.490;2023-03-24T16:35:28;17.20;1.00
14031;DHT22;7090;49.436;8.490;2023-03-24T16:37:54;17.00;1.00
14031;DHT22;7090;49.436;8.490;2023-03-24T16:40:33;16.90;1.00
14031;DHT22;7090;49.436;8.490;2023-03-24T16:42:59;16.70;1.00
14031;DHT22;7090;49.436;8.490;2023-03-24T16:45:29;16.60;1.00
14031;DHT22;7090;49.436;8.490;2023-03-24T16:47:56;16.60;1.00
14031;DHT22;7090;49.436;8.490;2023-03-24T16:52:51;16.50;1.00
14031;DHT22;7090;49.436;8.490;2023-03-24T16:55:17;16.40;1.00
14031;DHT22;7090;49.436;8.490;2023-03-24T16:57:42;16.40;1.00
14031;DHT22;7090;49.436;8.490;2023-03-24T17:00:08;16.30;1.00
14031;DHT22;7090;49.436;8.490;2023-03-24T17:02:36;16.20;1.00
14031;DHT22;7090;49.436;8.490;2023-03-24T17:05:25;16.20;1.00
14031;DHT22;7090;49.436;8.490;2023-03-24T17:07:55;16.20;1.00
14031;DHT22;7090;49.436;8.490;2023-03-24T17:10:22;16.10;1.00
14031;DHT22;7090;49.436;8.490;2023-03-24T17:12:49;16.00;1.00
14031;DHT22;7090;49.436;8.490;2023-03-24T17:15:25;16.00;1.00
14031;DHT22;7090;49.436;8.490;2023-03-24T17:17:51;15.90;1.00
14031;DHT22;7090;49.436;8.490;2023-03-24T17:20:17;15.90;1.00
14031;DHT22;7090;49.436;8.490;2023-03-24T17:22:45;15.90;1.00
14031;DHT22;7090;49.436;8.490;2023-03-24T17:25:13;15.80;1.00
14031;DHT22;7090;49.436;8.490;2023-03-24T17:27:39;15.90;1.00
14031;DHT22;7090;49.436;8.490;2023-03-24T17:30:06;15.80;1.00
14031;DHT22;7090;49.436;8.490;2023-03-24T17:32:32;15.70;99.90
14031;DHT22;7090;49.436;8.490;2023-03-24T17:34:59;15.70;99.90
14031;DHT22;7090;49.436;8.490;2023-03-24T17:37:27;15.80;99.90
14031;DHT22;7090;49.436;8.490;2023-03-24T17:39:53;15.70;99.90
14031;DHT22;7090;49.436;8.490;2023-03-24T17:42:20;15.70;99.90
14031;DHT22;7090;49.436;8.490;2023-03-24T17:44:46;15.70;1.00
14031;DHT22;7090;49.436;8.490;2023-03-24T17:47:12;15.60;99.90
14031;DHT22;7090;49.436;8.490;2023-03-24T17:49:37;15.40;99.90
14031;DHT22;7090;49.436;8.490;2023-03-24T17:52:28;15.40;99.90
14031;DHT22;7090;49.436;8.490;2023-03-24T17:54:53;15.20;1.00
14031;DHT22;7090;49.436;8.490;2023-03-24T17:57:19;15.10;99.90
14031;DHT22;7090;49.436;8.490;2023-03-24T17:59:45;15.20;1.00
14031;DHT22;7090;49.436;8.490;2023-03-24T18:02:11;15.10;1.00
14031;DHT22;7090;49.436;8.490;2023-03-24T18:04:37;15.00;1.00
14031;DHT22;7090;49.436;8.490;2023-03-24T18:07:03;14.90;1.00
14031;DHT22;7090;49.436;8.490;2023-03-24T18:09:32;14.80;1.00
14031;DHT22;7090;49.436;8.490;2023-03-24T18:11:58;14.70;99.90
14031;DHT22;7090;49.436;8.490;2023-03-24T18:14:23;14.60;1.00
14031;DHT22;7090;49.436;8.490;2023-03-24T18:16:49;14.50;1.00
14031;DHT22;7090;49.436;8.490;2023-03-24T18:19:15;14.40;1.00
14031;DHT22;7090;49.436;8.490;2023-03-24T18:21:40;14.30;1.00
14031;DHT22;7090;49.436;8.490;2023-03-24T18:24:07;14.30;26.50
14031;DHT22;7090;49.436;8.490;2023-03-24T18:26:32;14.30;99.90
14031;DHT22;7090;49.436;8.490;2023-03-24T18:28:59;14.20;99.90
14031;DHT22;7090;49.436;8.490;2023-03-24T18:34:34;14.10;1.00
14031;DHT22;7090;49.436;8.490;2023-03-24T18:37:00;14.00;1.00
14031;DHT22;7090;49.436;8.490;2023-03-24T18:39:26;13.90;1.00
14031;DHT22;7090;49.436;8.490;2023-03-24T18:41:51;13.90;1.00
14031;DHT22;7090;49.436;8.490;2023-03-24T18:44:18;13.90;1.00
14031;DHT22;7090;49.436;8.490;2023-03-24T18:46:44;13.80;1.00
14031;DHT22;7090;49.436;8.490;2023-03-24T18:49:13;13.80;1.00
14031;DHT22;7090;49.436;8.490;2023-03-24T18:51:38;13.70;1.00
14031;DHT22;7090;49.436;8.490;2023-03-24T18:54:04;13.70;1.00
14031;DHT22;7090;49.436;8.490;2023-03-24T18:56:31;13.80;1.00
14031;DHT22;7090;49.436;8.490;2023-03-24T18:58:56;13.60;1.00
14031;DHT22;7090;49.436;8.490;2023-03-24T19:01:22;13.60;27.20
14031;DHT22;7090;49.436;8.490;2023-03-24T19:03:49;13.60;58.30
14031;DHT22;7090;49.436;8.490;2023-03-24T19:06:15;13.60;99.90
14031;DHT22;7090;49.436;8.490;2023-03-24T19:08:44;13.50;99.90
14031;DHT22;7090;49.436;8.490;2023-03-24T19:11:11;13.50;90.00